Pollock, Idaho
Current Conditions -  °F | °C
As of 2:51 AM on Friday 28 Nov 2014 (Local Time) from KMYL Reporting Station
Light Rain Light Rain  
Wind Chill: 32°   Ceiling: 3000
Heat Index: 36°   Visibility: 8mi
Dew Point: 35°   Wind: 5mph
Humidity: 97%   Direction: 330°NNW
Pressure: 29.93"   Gusts: NA
Location:  45.31°N, 116.36°W
Report Text: KMYL 280951Z AUTO 33004KT 8SM -RA FEW023 BKN030 OVC039 02/02 A2993 RMK AO2 SLP141 P0008 T00220017
Loading
Personal Weather Stations






























Interactive Weather Map New forecast layout! Learn more

10-Day Weather Forecast

Advertisements
Track Severe Weather on mobile